createdAt,value
2023-04-11T00:01:34.511Z,97610.06
2023-04-11T00:06:37.230Z,97585.38
2023-04-11T00:11:40.057Z,97560.69
2023-04-11T00:16:43.001Z,97534.31
2023-04-11T00:21:45.644Z,97520.31
2023-04-11T00:26:48.302Z,97533.72
2023-04-11T00:31:52.915Z,97536.09
2023-04-11T00:36:56.237Z,97514.50
2023-04-11T00:42:09.085Z,97533.88
2023-04-11T00:47:12.690Z,97530.00
2023-04-11T00:52:15.354Z,97513.44
2023-04-11T00:57:18.249Z,97505.22
2023-04-11T01:02:20.874Z,97505.03
2023-04-11T01:07:26.120Z,97513.56
2023-04-11T01:12:30.238Z,97524.00
2023-04-11T01:17:34.181Z,97518.84
2023-04-11T01:22:38.901Z,97518.22
2023-04-11T01:27:43.220Z,97519.44
2023-04-11T01:32:46.258Z,97541.22
2023-04-11T01:37:49.101Z,97547.13
2023-04-11T01:42:53.144Z,97531.16
2023-04-11T01:47:57.297Z,97531.88
2023-04-11T01:53:00.127Z,97551.91
2023-04-11T01:58:03.178Z,97559.19
2023-04-11T02:03:06.119Z,97565.94
2023-04-11T02:08:08.973Z,97580.22
2023-04-11T02:13:11.924Z,97593.91
2023-04-11T02:18:14.499Z,97606.09
2023-04-11T02:23:17.223Z,97634.59
2023-04-11T02:28:22.803Z,97645.94
2023-04-11T02:33:28.456Z,97634.56
2023-04-11T02:38:31.334Z,97616.97
2023-04-11T02:43:34.824Z,97617.63
2023-04-11T02:48:37.564Z,97626.59
2023-04-11T02:53:41.328Z,97636.19
2023-04-11T02:58:49.043Z,97628.94
2023-04-11T03:03:54.419Z,97638.00
2023-04-11T03:09:00.835Z,97624.09
2023-04-11T03:14:04.093Z,97635.31
2023-04-11T03:19:07.086Z,97646.09
2023-04-11T03:24:09.817Z,97642.75
2023-04-11T03:29:12.470Z,97632.16
2023-04-11T03:34:27.985Z,97619.22
2023-04-11T03:39:33.185Z,97604.97
2023-04-11T03:44:36.054Z,97612.91
2023-04-11T03:49:38.712Z,97618.47
2023-04-11T03:54:41.609Z,97622.91
2023-04-11T03:59:48.218Z,97619.63
2023-04-11T04:04:58.884Z,97643.94
2023-04-11T04:10:08.614Z,97652.63
2023-04-11T04:15:15.045Z,97642.28
2023-04-11T04:20:21.049Z,97655.25
2023-04-11T04:25:29.091Z,97668.75
2023-04-11T04:30:34.246Z,97669.41
2023-04-11T04:35:42.508Z,97677.69
2023-04-11T04:40:45.252Z,97692.34
2023-04-11T04:45:48.230Z,97704.34
2023-04-11T04:50:56.402Z,97726.91
2023-04-11T04:55:59.293Z,97727.56
2023-04-11T05:01:05.413Z,97735.00
2023-04-11T05:06:10.064Z,97747.63
2023-04-11T05:11:13.854Z,97784.97
2023-04-11T05:16:18.001Z,97800.72
2023-04-11T05:21:21.286Z,97804.94
2023-04-11T05:26:27.822Z,97797.91
2023-04-11T05:31:31.076Z,97777.38
2023-04-11T05:36:34.314Z,97773.50
2023-04-11T05:41:37.321Z,97776.41
2023-04-11T05:46:39.920Z,97764.09
2023-04-11T05:51:42.617Z,97766.72
2023-04-11T05:56:45.269Z,97773.53
2023-04-11T06:01:48.191Z,97781.50
2023-04-11T06:06:52.232Z,97787.03
2023-04-11T06:11:55.041Z,97790.03
2023-04-11T06:16:57.652Z,97791.44
2023-04-11T06:22:00.403Z,97782.47
2023-04-11T06:27:03.962Z,97802.25
2023-04-11T06:32:07.942Z,97802.25
2023-04-11T06:37:10.746Z,97816.03
2023-04-11T06:42:13.402Z,97848.22
2023-04-11T06:47:19.685Z,97835.91
2023-04-11T06:52:22.647Z,97848.81
2023-04-11T06:57:25.397Z,97844.97
2023-04-11T07:02:28.218Z,97859.69
2023-04-11T07:07:31.745Z,97854.56
2023-04-11T07:12:34.822Z,97858.31
2023-04-11T07:17:38.091Z,97865.81
2023-04-11T07:22:45.476Z,97879.91
2023-04-11T07:27:49.850Z,97894.63
2023-04-11T07:32:52.542Z,97891.09
2023-04-11T07:37:57.652Z,97898.31
2023-04-11T07:43:02.278Z,97902.25
2023-04-11T07:48:05.507Z,97903.66
2023-04-11T07:53:08.237Z,97901.63
2023-04-11T07:58:11.150Z,97891.53
2023-04-11T08:03:14.029Z,97889.75
2023-04-11T08:08:17.172Z,97901.72
2023-04-11T08:13:19.905Z,97914.59
2023-04-11T08:18:23.443Z,97911.34
2023-04-11T08:23:26.283Z,97914.97
2023-04-11T08:28:28.972Z,97920.03
2023-04-11T08:33:32.441Z,97925.41
2023-04-11T08:38:36.138Z,97918.06
2023-04-11T08:43:44.114Z,97922.28
2023-04-11T08:48:49.799Z,97922.66
2023-04-11T08:53:58.625Z,97926.41
2023-04-11T08:59:02.704Z,97919.56
2023-04-11T09:04:06.773Z,97924.44
2023-04-11T09:09:27.905Z,97926.22
2023-04-11T09:14:31.677Z,97928.97
2023-04-11T09:19:36.113Z,97931.94
2023-04-11T09:24:39.042Z,97923.84
2023-04-11T09:29:46.797Z,97928.59
2023-04-11T09:34:49.937Z,97933.13
2023-04-11T09:40:11.830Z,97934.94
2023-04-11T09:45:21.311Z,97950.00
2023-04-11T09:50:25.660Z,97930.25
2023-04-11T09:55:28.373Z,97931.34
2023-04-11T10:00:32.716Z,97933.34
2023-04-11T10:05:35.739Z,97924.38
2023-04-11T10:10:38.695Z,97924.13
2023-04-11T10:16:11.525Z,97920.59
2023-04-11T10:21:36.606Z,97926.03
2023-04-11T10:26:51.847Z,97932.91
2023-04-11T10:32:12.834Z,97946.91
2023-04-11T10:37:15.705Z,97944.06
2023-04-11T10:42:34.949Z,97948.34
2023-04-11T10:47:37.613Z,97955.69
2023-04-11T10:52:40.243Z,97939.16
2023-04-11T10:58:11.788Z,97953.25
2023-04-11T11:03:25.901Z,97935.72
2023-04-11T11:08:38.249Z,97941.81
2023-04-11T11:13:50.870Z,97951.41
2023-04-11T11:19:02.769Z,97945.16
2023-04-11T11:24:06.171Z,97948.28
2023-04-11T11:29:10.270Z,97931.25
2023-04-11T11:34:23.521Z,97942.06
2023-04-11T11:39:28.469Z,97927.88
2023-04-11T11:44:33.310Z,97924.81
2023-04-11T11:49:56.321Z,97940.94
2023-04-11T11:54:58.958Z,97936.06
2023-04-11T12:00:06.319Z,97943.56
2023-04-11T12:05:11.984Z,97940.38
2023-04-11T12:10:17.274Z,97926.91
2023-04-11T12:15:22.067Z,97927.44
2023-04-11T12:20:26.755Z,97940.97
2023-04-11T12:25:30.532Z,97923.72
2023-04-11T12:30:33.734Z,97939.06
2023-04-11T12:35:36.547Z,97933.66
2023-04-11T12:40:39.296Z,97936.53
2023-04-11T12:45:42.260Z,97944.50
2023-04-11T12:50:44.943Z,97948.53
2023-04-11T12:55:47.743Z,97944.94
2023-04-11T13:00:50.740Z,97956.03
2023-04-11T13:05:53.838Z,97955.63
2023-04-11T13:10:56.960Z,97946.06
2023-04-11T13:16:00.461Z,97942.03
2023-04-11T13:21:03.585Z,97949.84
2023-04-11T13:26:07.473Z,97939.84
2023-04-11T13:31:14.363Z,97952.78
2023-04-11T13:36:17.068Z,97932.44
2023-04-11T13:41:19.642Z,97933.75
2023-04-11T13:46:22.538Z,97929.06
2023-04-11T13:51:25.142Z,97928.06
2023-04-11T13:56:27.798Z,97934.84
2023-04-11T14:01:30.673Z,97914.91
2023-04-11T14:06:35.502Z,97931.84
2023-04-11T14:11:38.504Z,97940.59
2023-04-11T14:16:41.764Z,97918.75
2023-04-11T14:21:44.554Z,97910.78
2023-04-11T14:26:47.291Z,97922.25
2023-04-11T14:31:50.448Z,97909.56
2023-04-11T14:36:53.383Z,97924.41
2023-04-11T14:41:56.576Z,97911.22
2023-04-11T14:46:59.175Z,97930.31
2023-04-11T14:52:02.384Z,97918.16
2023-04-11T14:57:05.731Z,97921.25
2023-04-11T15:02:08.985Z,97919.94
2023-04-11T15:07:11.879Z,97904.16
2023-04-11T15:12:14.378Z,97908.03
2023-04-11T15:17:17.265Z,97904.25
2023-04-11T15:22:19.885Z,97899.50
2023-04-11T15:27:22.662Z,97896.66
2023-04-11T15:32:25.757Z,97894.09
2023-04-11T15:37:28.636Z,97898.38
2023-04-11T15:42:34.439Z,97888.84
2023-04-11T15:47:37.785Z,97886.78
2023-04-11T15:52:40.884Z,97892.75
2023-04-11T15:57:43.461Z,97891.59
2023-04-11T16:02:47.389Z,97887.25
2023-04-11T16:07:50.505Z,97881.28
2023-04-11T16:12:53.310Z,97880.25
2023-04-11T16:17:56.246Z,97874.06
2023-04-11T16:22:59.065Z,97874.69
2023-04-11T16:28:02.272Z,97868.13
2023-04-11T16:33:05.441Z,97864.38
2023-04-11T16:38:08.402Z,97862.28
2023-04-11T16:43:11.330Z,97859.59
2023-04-11T16:48:13.910Z,97861.47
2023-04-11T16:53:18.698Z,97853.66
2023-04-11T16:58:21.350Z,97843.06
2023-04-11T17:03:24.356Z,97849.78
2023-04-11T17:08:27.113Z,97841.06
2023-04-11T17:13:29.738Z,97830.16
2023-04-11T17:18:32.463Z,97826.47
2023-04-11T17:23:43.169Z,97825.25
2023-04-11T17:28:47.174Z,97825.91
2023-04-11T17:33:49.816Z,97822.84
2023-04-11T17:38:54.611Z,97828.47
2023-04-11T17:43:57.595Z,97832.56
2023-04-11T17:49:00.377Z,97823.75
2023-04-11T17:54:03.262Z,97828.47
2023-04-11T17:59:06.606Z,97835.13
2023-04-11T18:04:09.899Z,97830.09
2023-04-11T18:09:12.734Z,97827.63
2023-04-11T18:14:15.294Z,97824.81
2023-04-11T18:19:18.474Z,97826.03
2023-04-11T18:24:21.324Z,97827.56
2023-04-11T18:29:23.972Z,97833.31
2023-04-11T18:34:26.823Z,97825.84
2023-04-11T18:39:29.664Z,97830.81
2023-04-11T18:44:32.660Z,97841.88
2023-04-11T18:49:37.341Z,97851.28
2023-04-11T18:54:40.267Z,97853.09
2023-04-11T18:59:44.302Z,97845.97
2023-04-11T19:04:47.536Z,97840.41
2023-04-11T19:09:50.255Z,97834.06
2023-04-11T19:14:53.247Z,97828.59
2023-04-11T19:19:56.069Z,97818.63
2023-04-11T19:24:58.955Z,97812.34
2023-04-11T19:30:01.785Z,97824.81
2023-04-11T19:35:06.018Z,97819.53
2023-04-11T19:40:19.533Z,97812.47
2023-04-11T19:45:22.395Z,97799.25
2023-04-11T19:50:25.734Z,97792.41
2023-04-11T19:55:29.267Z,97799.91
2023-04-11T20:00:36.599Z,97788.75
2023-04-11T20:05:39.325Z,97774.69
2023-04-11T20:10:41.988Z,97766.56
2023-04-11T20:15:44.847Z,97771.16
2023-04-11T20:20:47.492Z,97762.38
2023-04-11T20:25:50.188Z,97761.38
2023-04-11T20:30:52.927Z,97748.88
2023-04-11T20:35:57.015Z,97750.88
2023-04-11T20:41:03.987Z,97755.97
2023-04-11T20:46:08.869Z,97742.06
2023-04-11T20:51:11.582Z,97730.47
2023-04-11T20:56:15.164Z,97715.88
2023-04-11T21:01:18.294Z,97723.16
2023-04-11T21:06:21.391Z,97713.47
2023-04-11T21:11:24.490Z,97704.31
2023-04-11T21:16:27.398Z,97709.66
2023-04-11T21:21:30.059Z,97698.34
2023-04-11T21:26:32.684Z,97691.88
2023-04-11T21:31:35.833Z,97684.31
2023-04-11T21:36:39.016Z,97685.84
2023-04-11T21:41:41.737Z,97684.91
2023-04-11T21:46:45.066Z,97664.44
2023-04-11T21:51:47.718Z,97659.13
2023-04-11T21:56:50.395Z,97648.59
2023-04-11T22:01:53.108Z,97644.75
2023-04-11T22:06:58.683Z,97634.66
2023-04-11T22:12:01.845Z,97622.56
2023-04-11T22:17:04.671Z,97616.03
2023-04-11T22:22:08.483Z,97609.44
2023-04-11T22:27:11.085Z,97590.41
2023-04-11T22:32:13.823Z,97579.13
2023-04-11T22:37:16.686Z,97572.13
2023-04-11T22:42:19.524Z,97559.47
2023-04-11T22:47:22.118Z,97553.28
2023-04-11T22:52:26.247Z,97565.19
2023-04-11T22:57:28.920Z,97548.50
2023-04-11T23:02:34.642Z,97561.78
2023-04-11T23:07:37.580Z,97554.19
2023-04-11T23:12:44.615Z,97539.44
2023-04-11T23:17:47.307Z,97537.94
2023-04-11T23:22:49.951Z,97537.19
2023-04-11T23:27:52.838Z,97533.91
2023-04-11T23:32:55.422Z,97536.78
2023-04-11T23:38:00.111Z,97536.19
2023-04-11T23:43:02.685Z,97515.94
2023-04-11T23:48:05.822Z,97513.78
2023-04-11T23:53:08.814Z,97516.75
2023-04-11T23:58:11.614Z,97507.53
